createdAt,value
2024-01-10T00:00:30.897Z,1.85
2024-01-10T00:01:30.897Z,2.02
2024-01-10T00:02:30.960Z,2.05
2024-01-10T00:03:30.969Z,1.94
2024-01-10T00:04:30.930Z,2.08
2024-01-10T00:05:30.956Z,1.94
2024-01-10T00:06:30.925Z,1.97
2024-01-10T00:07:30.935Z,1.87
2024-01-10T00:08:30.914Z,2.02
2024-01-10T00:09:30.924Z,1.95
2024-01-10T00:10:30.934Z,1.79
2024-01-10T00:11:33.736Z,1.84
2024-01-10T00:12:30.941Z,2.36
2024-01-10T00:13:30.914Z,1.81
2024-01-10T00:14:30.925Z,1.74
2024-01-10T00:15:30.928Z,2.13
2024-01-10T00:16:30.936Z,2.50
2024-01-10T00:17:30.953Z,2.02
2024-01-10T00:18:31.089Z,1.60
2024-01-10T00:19:30.933Z,2.12
2024-01-10T00:20:30.930Z,1.83
2024-01-10T00:21:30.935Z,1.82
2024-01-10T00:22:30.964Z,2.20
2024-01-10T00:23:30.966Z,2.32
2024-01-10T00:24:31.043Z,1.81
2024-01-10T00:25:31.109Z,2.00
2024-01-10T00:26:31.172Z,1.84
2024-01-10T00:27:31.181Z,1.68
2024-01-10T00:28:31.188Z,1.86
2024-01-10T00:29:31.193Z,1.69
2024-01-10T00:30:31.204Z,1.98
2024-01-10T00:31:31.169Z,1.93
2024-01-10T00:32:31.291Z,1.77
2024-01-10T00:33:31.277Z,1.95
2024-01-10T00:34:31.166Z,2.34
2024-01-10T00:35:31.171Z,2.04
2024-01-10T00:36:31.205Z,1.83
2024-01-10T00:37:31.290Z,1.75
2024-01-10T00:38:31.289Z,1.68
2024-01-10T00:39:31.285Z,1.65
2024-01-10T00:40:31.281Z,1.57
2024-01-10T00:41:31.298Z,1.98
2024-01-10T00:42:31.316Z,1.74
2024-01-10T00:43:31.282Z,1.22
2024-01-10T00:44:31.292Z,2.12
2024-01-10T00:45:31.303Z,2.18
2024-01-10T00:46:31.305Z,2.03
2024-01-10T00:47:31.346Z,1.90
2024-01-10T00:48:31.330Z,1.86
2024-01-10T00:49:31.320Z,1.71
2024-01-10T00:50:31.346Z,1.80
2024-01-10T00:51:31.298Z,1.99
2024-01-10T00:52:31.315Z,1.81
2024-01-10T00:53:31.311Z,2.04
2024-01-10T00:54:31.304Z,1.87
2024-01-10T00:55:31.331Z,1.92
2024-01-10T00:56:31.299Z,1.46
2024-01-10T00:57:31.331Z,2.08
2024-01-10T00:58:31.313Z,2.02
2024-01-10T00:59:31.369Z,1.38
2024-01-10T01:00:31.470Z,2.19
2024-01-10T01:01:31.527Z,1.60
2024-01-10T01:02:31.596Z,1.95
2024-01-10T01:03:31.599Z,1.63
2024-01-10T01:04:31.572Z,1.67
2024-01-10T01:05:31.678Z,1.57
2024-01-10T01:06:31.592Z,1.82
2024-01-10T01:07:31.579Z,1.84
2024-01-10T01:08:31.599Z,1.66
2024-01-10T01:09:31.592Z,1.47
2024-01-10T01:10:33.084Z,1.89
2024-01-10T01:11:31.878Z,2.04
2024-01-10T01:12:31.914Z,1.48
2024-01-10T01:13:31.969Z,1.39
2024-01-10T01:14:32.041Z,1.52
2024-01-10T01:15:32.108Z,1.68
2024-01-10T01:16:32.170Z,1.52
2024-01-10T01:17:32.287Z,2.09
2024-01-10T01:18:32.347Z,1.45
2024-01-10T01:19:32.377Z,1.79
2024-01-10T01:20:32.510Z,1.86
2024-01-10T01:21:32.502Z,1.90
2024-01-10T01:22:32.679Z,1.94
2024-01-10T01:23:39.149Z,1.96
2024-01-10T01:24:32.652Z,1.47
2024-01-10T01:25:32.764Z,1.60
2024-01-10T01:26:32.630Z,1.42
2024-01-10T01:27:32.650Z,1.63
2024-01-10T01:28:32.795Z,1.78
2024-01-10T01:29:32.645Z,1.82
2024-01-10T01:30:32.673Z,1.94
2024-01-10T01:31:32.673Z,1.56
2024-01-10T01:32:32.702Z,1.37
2024-01-10T01:33:32.784Z,1.76
2024-01-10T01:34:32.825Z,1.65
2024-01-10T01:35:32.825Z,1.75
2024-01-10T01:36:32.885Z,1.74
2024-01-10T01:37:33.074Z,2.00
2024-01-10T01:38:33.036Z,1.64
2024-01-10T01:39:33.089Z,1.46
2024-01-10T01:40:33.271Z,1.71
2024-01-10T01:41:33.225Z,1.42
2024-01-10T01:42:33.316Z,1.78
2024-01-10T01:43:33.368Z,1.44
2024-01-10T01:44:33.423Z,1.42
2024-01-10T01:45:33.484Z,1.47
2024-01-10T01:46:33.604Z,1.65
2024-01-10T01:47:33.666Z,1.75
2024-01-10T01:48:33.787Z,1.57
2024-01-10T01:49:33.929Z,1.80
2024-01-10T01:50:33.848Z,1.48
2024-01-10T01:51:33.920Z,1.78
2024-01-10T01:52:33.960Z,1.64
2024-01-10T01:53:34.031Z,1.70
2024-01-10T01:54:34.078Z,1.86
2024-01-10T01:55:34.160Z,1.78
2024-01-10T01:56:34.228Z,1.62
2024-01-10T01:57:34.262Z,1.33
2024-01-10T01:58:34.341Z,2.15
2024-01-10T01:59:34.362Z,1.66
2024-01-10T02:00:34.431Z,2.00
2024-01-10T02:01:34.447Z,1.81
2024-01-10T02:02:34.529Z,1.50
2024-01-10T02:03:34.565Z,1.84
2024-01-10T02:04:34.586Z,1.73
2024-01-10T02:05:34.762Z,1.39
2024-01-10T02:06:34.658Z,1.78
2024-01-10T02:07:34.772Z,1.86
2024-01-10T02:08:34.741Z,2.02
2024-01-10T02:09:34.778Z,1.55
2024-01-10T02:10:34.850Z,1.41
2024-01-10T02:11:34.856Z,1.55
2024-01-10T02:12:34.899Z,1.91
2024-01-10T02:13:35.000Z,1.58
2024-01-10T02:14:34.982Z,1.90
2024-01-10T02:15:35.040Z,1.77
2024-01-10T02:16:35.149Z,1.82
2024-01-10T02:17:35.148Z,1.85
2024-01-10T02:18:35.222Z,1.82
2024-01-10T02:19:35.224Z,1.82
2024-01-10T02:20:35.272Z,1.40
2024-01-10T02:21:35.295Z,1.49
2024-01-10T02:22:35.374Z,1.66
2024-01-10T02:23:35.413Z,1.48
2024-01-10T02:24:35.414Z,1.81
2024-01-10T02:25:35.474Z,1.46
2024-01-10T02:26:35.558Z,1.87
2024-01-10T02:27:35.601Z,1.99
2024-01-10T02:28:35.661Z,1.61
2024-01-10T02:29:35.728Z,1.63
2024-01-10T02:30:35.816Z,1.30
2024-01-10T02:31:35.875Z,1.65
2024-01-10T02:32:35.981Z,1.75
2024-01-10T02:33:36.096Z,1.28
2024-01-10T02:34:36.088Z,1.89
2024-01-10T02:35:36.118Z,1.65
2024-01-10T02:36:36.217Z,1.60
2024-01-10T02:37:36.354Z,1.48
2024-01-10T02:38:36.327Z,1.92
2024-01-10T02:39:36.393Z,1.55
2024-01-10T02:40:36.511Z,1.72
2024-01-10T02:41:36.514Z,1.47
2024-01-10T02:42:36.591Z,1.64
2024-01-10T02:43:36.700Z,1.52
2024-01-10T02:44:36.726Z,1.50
2024-01-10T02:45:36.802Z,1.81
2024-01-10T02:46:36.863Z,1.63
2024-01-10T02:47:36.933Z,1.48
2024-01-10T02:48:36.960Z,1.23
2024-01-10T02:49:36.907Z,2.01
2024-01-10T02:50:36.860Z,1.51
2024-01-10T02:51:36.858Z,1.31
2024-01-10T02:52:36.901Z,1.87
2024-01-10T02:53:36.884Z,1.77
2024-01-10T02:54:36.887Z,1.51
2024-01-10T02:55:36.879Z,1.31
2024-01-10T02:56:36.893Z,1.60
2024-01-10T02:57:36.866Z,1.46
2024-01-10T02:58:36.938Z,1.63
2024-01-10T02:59:36.875Z,1.47
2024-01-10T03:00:36.891Z,1.35
2024-01-10T03:01:36.915Z,1.49
2024-01-10T03:02:36.979Z,1.66
2024-01-10T03:03:36.926Z,1.58
2024-01-10T03:04:36.912Z,1.56
2024-01-10T03:05:36.986Z,1.73
2024-01-10T03:06:36.893Z,1.25
2024-01-10T03:07:36.921Z,1.48
2024-01-10T03:08:36.911Z,1.43
2024-01-10T03:09:36.904Z,1.57
2024-01-10T03:10:36.979Z,1.56
2024-01-10T03:11:36.897Z,1.17
2024-01-10T03:12:36.895Z,1.47
2024-01-10T03:13:36.967Z,1.59
2024-01-10T03:14:36.903Z,1.14
2024-01-10T03:15:36.917Z,1.55
2024-01-10T03:16:36.942Z,1.71
2024-01-10T03:17:36.998Z,0.94
2024-01-10T03:18:37.004Z,0.89
2024-01-10T03:19:36.947Z,0.75
2024-01-10T03:20:36.921Z,1.05
2024-01-10T03:21:36.921Z,1.60
2024-01-10T03:22:36.928Z,1.56
2024-01-10T03:23:36.926Z,1.51
2024-01-10T03:24:36.924Z,1.78
2024-01-10T03:25:36.995Z,1.40
2024-01-10T03:26:36.942Z,1.12
2024-01-10T03:27:36.954Z,1.24
2024-01-10T03:28:37.007Z,1.41
2024-01-10T03:29:36.949Z,1.39
2024-01-10T03:30:36.989Z,1.27
2024-01-10T03:31:36.974Z,1.46
2024-01-10T03:32:37.096Z,1.31
2024-01-10T03:33:36.997Z,1.23
2024-01-10T03:34:36.942Z,1.20
2024-01-10T03:35:36.947Z,1.15
2024-01-10T03:36:36.952Z,1.29
2024-01-10T03:37:37.019Z,1.05
2024-01-10T03:38:36.957Z,1.17
2024-01-10T03:39:36.958Z,1.15
2024-01-10T03:40:37.012Z,1.11
2024-01-10T03:41:36.978Z,1.34
2024-01-10T03:42:36.954Z,1.35
2024-01-10T03:43:36.990Z,1.29
2024-01-10T03:44:36.963Z,1.38
2024-01-10T03:45:36.982Z,1.36
2024-01-10T03:46:36.994Z,1.00
2024-01-10T03:47:37.063Z,1.18
2024-01-10T03:48:37.002Z,1.32
2024-01-10T03:49:37.019Z,1.30
2024-01-10T03:50:37.001Z,1.28
2024-01-10T03:51:36.990Z,1.32
2024-01-10T03:52:37.018Z,1.18
2024-01-10T03:53:37.007Z,0.83
2024-01-10T03:54:36.990Z,1.11
2024-01-10T03:55:37.053Z,0.99
2024-01-10T03:56:37.086Z,1.25
2024-01-10T03:57:37.017Z,0.75
2024-01-10T03:58:37.171Z,1.00
2024-01-10T03:59:37.112Z,0.81
2024-01-10T04:00:37.198Z,1.03
2024-01-10T04:01:37.138Z,1.30
2024-01-10T04:02:37.243Z,1.14
2024-01-10T04:03:37.236Z,1.36
2024-01-10T04:04:37.175Z,1.11
2024-01-10T04:05:37.304Z,1.29
2024-01-10T04:06:37.149Z,0.99
2024-01-10T04:07:37.226Z,1.19
2024-01-10T04:08:37.171Z,0.72
2024-01-10T04:09:37.149Z,1.07
2024-01-10T04:10:37.170Z,0.49
2024-01-10T04:11:37.148Z,1.10
2024-01-10T04:12:37.145Z,0.96
2024-01-10T04:13:37.272Z,1.09
2024-01-10T04:14:37.160Z,1.00
2024-01-10T04:15:37.167Z,0.74
2024-01-10T04:16:37.180Z,0.89
2024-01-10T04:17:37.298Z,0.79
2024-01-10T04:18:37.476Z,0.90
2024-01-10T04:19:37.378Z,1.03
2024-01-10T04:20:37.464Z,0.68
2024-01-10T04:21:37.359Z,0.75
2024-01-10T04:22:44.560Z,0.80
2024-01-10T04:23:44.555Z,0.80
2024-01-10T04:24:44.549Z,0.75
2024-01-10T04:25:44.591Z,0.56
2024-01-10T04:26:44.571Z,0.76
2024-01-10T04:27:44.560Z,0.70
2024-01-10T04:28:44.593Z,0.31
2024-01-10T04:29:44.555Z,0.71
2024-01-10T04:30:44.655Z,0.84
2024-01-10T04:31:51.860Z,0.74
2024-01-10T04:32:51.888Z,0.91
2024-01-10T04:33:51.876Z,0.64
2024-01-10T04:34:51.911Z,0.65
2024-01-10T04:35:51.837Z,0.82
2024-01-10T04:36:51.847Z,0.72
2024-01-10T04:37:51.870Z,0.98
2024-01-10T04:38:51.852Z,0.62
2024-01-10T04:39:51.856Z,0.69
2024-01-10T04:40:51.884Z,1.07
2024-01-10T04:41:51.873Z,0.88
2024-01-10T04:42:51.878Z,0.76
2024-01-10T04:43:51.885Z,0.71
2024-01-10T04:44:51.861Z,0.83
2024-01-10T04:45:51.864Z,0.88
2024-01-10T04:46:51.897Z,0.99
2024-01-10T04:47:51.993Z,0.72
2024-01-10T04:48:52.010Z,0.81
2024-01-10T04:49:51.944Z,0.87
2024-01-10T04:50:51.891Z,0.67
2024-01-10T04:51:51.890Z,0.73
2024-01-10T04:52:51.923Z,1.03
2024-01-10T04:53:51.972Z,0.66
2024-01-10T04:54:52.010Z,1.09
2024-01-10T04:55:52.373Z,1.26
2024-01-10T04:56:52.111Z,1.21
2024-01-10T04:57:52.162Z,1.26
2024-01-10T04:58:52.263Z,1.47
2024-01-10T04:59:52.259Z,1.45
2024-01-10T05:00:52.392Z,1.20
2024-01-10T05:01:52.427Z,1.50
2024-01-10T05:02:54.686Z,1.03
2024-01-10T05:03:52.665Z,0.79
2024-01-10T05:04:52.754Z,1.36
2024-01-10T05:05:52.852Z,0.86
2024-01-10T05:06:52.773Z,1.44
2024-01-10T05:07:53.010Z,1.34
2024-01-10T05:08:52.862Z,0.89
2024-01-10T05:09:52.922Z,0.81
2024-01-10T05:10:53.002Z,1.29
2024-01-10T05:11:53.041Z,1.46
2024-01-10T05:12:53.077Z,1.65
2024-01-10T05:13:53.121Z,1.60
2024-01-10T05:14:53.104Z,1.52
2024-01-10T05:15:53.110Z,2.01
2024-01-10T05:16:53.160Z,1.73
2024-01-10T05:17:53.152Z,1.96
2024-01-10T05:18:53.200Z,1.32
2024-01-10T05:19:53.191Z,2.07
2024-01-10T05:20:53.133Z,1.39
2024-01-10T05:21:53.139Z,1.38
2024-01-10T05:22:53.162Z,2.10
2024-01-10T05:23:53.141Z,2.46
2024-01-10T05:24:53.195Z,2.40
2024-01-10T05:25:53.302Z,2.84
2024-01-10T05:26:53.274Z,4.50
2024-01-10T05:27:53.325Z,3.54
2024-01-10T05:28:53.400Z,4.31
2024-01-10T05:29:53.374Z,4.33
2024-01-10T05:30:53.391Z,5.38
2024-01-10T05:31:53.410Z,4.63
2024-01-10T05:32:53.459Z,4.47
2024-01-10T05:33:53.560Z,3.72
2024-01-10T05:34:53.444Z,3.78
2024-01-10T05:35:53.417Z,4.44
2024-01-10T05:36:53.442Z,3.71
2024-01-10T05:37:53.541Z,4.10
2024-01-10T05:38:53.470Z,2.62
2024-01-10T05:39:53.472Z,2.53
2024-01-10T05:40:53.614Z,3.38
2024-01-10T05:41:53.475Z,2.78
2024-01-10T05:42:53.493Z,2.93
2024-01-10T05:43:53.532Z,3.07
2024-01-10T05:44:53.505Z,3.43
2024-01-10T05:45:53.485Z,3.46
2024-01-10T05:46:53.496Z,2.70
2024-01-10T05:47:53.606Z,2.72
2024-01-10T05:48:53.594Z,3.22
2024-01-10T05:49:53.508Z,3.26
2024-01-10T05:50:53.488Z,3.25
2024-01-10T05:51:53.491Z,3.25
2024-01-10T05:52:53.512Z,2.68
2024-01-10T05:53:53.499Z,3.68
2024-01-10T05:54:53.490Z,2.38
2024-01-10T05:55:53.564Z,3.18
2024-01-10T05:56:53.511Z,3.18
2024-01-10T05:57:53.496Z,3.32
2024-01-10T05:58:53.675Z,3.03
2024-01-10T05:59:53.507Z,3.07
2024-01-10T06:00:53.522Z,3.06
2024-01-10T06:01:53.537Z,2.24
2024-01-10T06:02:53.492Z,2.22
2024-01-10T06:03:53.607Z,2.15
2024-01-10T06:04:53.526Z,1.65
2024-01-10T06:05:53.541Z,1.71
2024-01-10T06:06:53.549Z,2.40
2024-01-10T06:07:53.713Z,1.65
2024-01-10T06:08:53.684Z,2.58
2024-01-10T06:09:53.711Z,3.31
2024-01-10T06:10:53.747Z,2.74
2024-01-10T06:11:53.719Z,2.87
2024-01-10T06:12:53.732Z,2.62
2024-01-10T06:13:57.159Z,2.41
2024-01-10T06:14:53.744Z,2.59
2024-01-10T06:15:53.745Z,2.52
2024-01-10T06:16:56.449Z,2.15
2024-01-10T06:17:53.913Z,1.63
2024-01-10T06:18:53.870Z,2.46
2024-01-10T06:19:53.769Z,1.84
2024-01-10T06:20:53.747Z,2.82
2024-01-10T06:21:53.737Z,2.39
2024-01-10T06:22:53.798Z,2.40
2024-01-10T06:23:53.774Z,2.47
2024-01-10T06:24:53.750Z,1.66
2024-01-10T06:25:53.785Z,2.63
2024-01-10T06:26:53.753Z,1.69
2024-01-10T06:27:53.757Z,3.26
2024-01-10T06:28:53.880Z,2.70
2024-01-10T06:29:53.769Z,3.18
2024-01-10T06:30:53.869Z,2.18
2024-01-10T06:31:53.844Z,1.88
2024-01-10T06:32:53.787Z,1.95
2024-01-10T06:33:53.883Z,2.70
2024-01-10T06:34:53.838Z,1.56
2024-01-10T06:35:53.766Z,0.50
2024-01-10T06:36:53.783Z,2.46
2024-01-10T06:37:53.853Z,2.71
2024-01-10T06:38:53.849Z,2.31
2024-01-10T06:39:53.771Z,2.79
2024-01-10T06:40:53.842Z,1.88
2024-01-10T06:41:53.788Z,2.29
2024-01-10T06:42:53.872Z,1.73
2024-01-10T06:43:53.941Z,2.51
2024-01-10T06:44:53.980Z,1.34
2024-01-10T06:45:54.075Z,1.99
2024-01-10T06:46:54.139Z,2.71
2024-01-10T06:47:54.194Z,1.93
2024-01-10T06:48:54.264Z,1.89
2024-01-10T06:49:54.237Z,2.24
2024-01-10T06:50:54.223Z,2.58
2024-01-10T06:51:54.240Z,2.27
2024-01-10T06:52:54.437Z,2.38
2024-01-10T06:53:54.245Z,2.10
2024-01-10T06:54:54.230Z,2.50
2024-01-10T06:55:54.251Z,2.43
2024-01-10T06:56:54.237Z,1.78
2024-01-10T06:57:54.228Z,3.04
2024-01-10T06:58:54.271Z,2.18
2024-01-10T06:59:54.241Z,1.32
2024-01-10T07:00:54.350Z,2.27
2024-01-10T07:01:54.343Z,2.65
2024-01-10T07:02:54.375Z,1.69
2024-01-10T07:03:54.284Z,1.81
2024-01-10T07:04:54.382Z,1.43
2024-01-10T07:05:54.299Z,2.55
2024-01-10T07:06:54.263Z,1.79
2024-01-10T07:07:54.361Z,1.48
2024-01-10T07:08:54.297Z,2.53
2024-01-10T07:09:54.262Z,3.33
2024-01-10T07:10:54.352Z,2.77
2024-01-10T07:11:54.283Z,4.07
2024-01-10T07:12:54.277Z,1.89
2024-01-10T07:13:54.327Z,3.03
2024-01-10T07:14:54.327Z,2.46
2024-01-10T07:15:54.401Z,1.95
2024-01-10T07:16:54.457Z,1.99
2024-01-10T07:17:54.493Z,3.13
2024-01-10T07:18:54.578Z,2.48
2024-01-10T07:19:54.555Z,3.63
2024-01-10T07:20:54.474Z,3.50
2024-01-10T07:21:54.457Z,3.69
2024-01-10T07:22:54.491Z,2.63
2024-01-10T07:23:54.478Z,3.82
2024-01-10T07:24:54.471Z,4.74
2024-01-10T07:25:54.526Z,4.40
2024-01-10T07:26:54.491Z,4.52
2024-01-10T07:27:54.489Z,3.49
2024-01-10T07:28:54.667Z,3.34
2024-01-10T07:29:54.479Z,5.22
2024-01-10T07:30:54.561Z,4.75
2024-01-10T07:31:54.599Z,7.00
2024-01-10T07:32:54.671Z,7.06
2024-01-10T07:33:54.542Z,6.73
2024-01-10T07:34:54.488Z,5.53
2024-01-10T07:35:54.487Z,7.72
2024-01-10T07:36:54.490Z,9.82
2024-01-10T07:37:54.508Z,8.84
2024-01-10T07:38:54.483Z,8.56
2024-01-10T07:39:54.495Z,9.19
2024-01-10T07:40:54.539Z,9.15
2024-01-10T07:41:54.500Z,8.56
2024-01-10T07:42:54.518Z,7.84
2024-01-10T07:43:54.606Z,5.91
2024-01-10T07:44:55.002Z,5.50
2024-01-10T07:45:54.512Z,6.78
2024-01-10T07:46:54.561Z,4.95
2024-01-10T07:47:54.540Z,4.88
2024-01-10T07:48:54.530Z,4.66
2024-01-10T07:49:54.564Z,5.20
2024-01-10T07:50:54.520Z,3.95
2024-01-10T07:51:54.506Z,3.09
2024-01-10T07:52:54.566Z,3.65
2024-01-10T07:53:54.553Z,4.25
2024-01-10T07:54:54.530Z,3.47
2024-01-10T07:55:54.571Z,3.89
2024-01-10T07:56:54.692Z,4.30
2024-01-10T07:57:54.544Z,4.51
2024-01-10T07:58:54.541Z,1.81
2024-01-10T07:59:54.552Z,2.76
2024-01-10T08:00:54.638Z,2.48
2024-01-10T08:01:54.696Z,3.98
2024-01-10T08:02:54.723Z,3.21
2024-01-10T08:03:54.825Z,4.49
2024-01-10T08:04:54.899Z,2.76
2024-01-10T08:05:54.984Z,3.22
2024-01-10T08:06:55.001Z,3.21
2024-01-10T08:07:55.008Z,1.86
2024-01-10T08:08:55.052Z,3.01
2024-01-10T08:09:55.099Z,2.83
2024-01-10T08:10:55.223Z,4.02
2024-01-10T08:11:55.246Z,3.79
2024-01-10T08:12:55.283Z,2.81
2024-01-10T08:13:55.359Z,2.48
2024-01-10T08:14:55.399Z,2.89
2024-01-10T08:15:55.473Z,2.72
2024-01-10T08:16:55.538Z,3.02
2024-01-10T08:17:55.641Z,2.32
2024-01-10T08:18:55.703Z,2.65
2024-01-10T08:19:55.777Z,2.35
2024-01-10T08:20:55.716Z,1.94
2024-01-10T08:21:55.791Z,2.47
2024-01-10T08:22:55.896Z,1.93
2024-01-10T08:23:55.880Z,2.09
2024-01-10T08:24:55.873Z,3.14
2024-01-10T08:25:55.912Z,1.99
2024-01-10T08:26:55.869Z,1.88
2024-01-10T08:27:56.150Z,2.15
2024-01-10T08:28:55.906Z,2.75
2024-01-10T08:29:55.854Z,2.81
2024-01-10T08:31:02.541Z,2.57
2024-01-10T08:31:56.878Z,2.61
2024-01-10T08:32:56.012Z,2.68
2024-01-10T08:33:55.959Z,2.66
2024-01-10T08:34:55.900Z,2.75
2024-01-10T08:35:55.857Z,2.86
2024-01-10T08:36:55.873Z,3.00
2024-01-10T08:37:55.963Z,3.52
2024-01-10T08:38:55.866Z,3.00
2024-01-10T08:39:55.875Z,3.06
2024-01-10T08:40:55.929Z,3.58
2024-01-10T08:41:55.888Z,3.75
2024-01-10T08:42:55.904Z,3.35
2024-01-10T08:43:55.951Z,2.18
2024-01-10T08:44:55.906Z,2.22
2024-01-10T08:45:55.980Z,2.67
2024-01-10T08:46:55.913Z,2.23
2024-01-10T08:47:55.968Z,2.32
2024-01-10T08:48:55.972Z,2.52
2024-01-10T08:49:55.910Z,2.74
2024-01-10T08:50:55.933Z,2.51
2024-01-10T08:51:55.935Z,2.58
2024-01-10T08:52:55.941Z,2.24
2024-01-10T08:53:55.922Z,3.05
2024-01-10T08:54:55.977Z,2.18
2024-01-10T08:55:56.057Z,2.55
2024-01-10T08:56:56.034Z,2.26
2024-01-10T08:57:56.144Z,3.12
2024-01-10T08:58:56.156Z,2.29
2024-01-10T08:59:56.137Z,2.05
2024-01-10T09:00:56.228Z,2.44
2024-01-10T09:01:56.218Z,2.52
2024-01-10T09:02:56.191Z,2.26
2024-01-10T09:03:56.319Z,2.09
2024-01-10T09:04:56.246Z,2.11
2024-01-10T09:06:04.937Z,2.31
2024-01-10T09:06:57.265Z,2.58
2024-01-10T09:07:56.282Z,2.29
2024-01-10T09:08:56.272Z,1.84
2024-01-10T09:09:56.240Z,1.66
2024-01-10T09:10:56.360Z,1.85
2024-01-10T09:11:56.258Z,2.29
2024-01-10T09:12:56.262Z,2.43
2024-01-10T09:13:56.301Z,2.12
2024-01-10T09:14:56.347Z,1.86
2024-01-10T09:15:56.411Z,2.62
2024-01-10T09:16:56.520Z,2.40
2024-01-10T09:17:56.631Z,2.48
2024-01-10T09:18:56.664Z,3.03
2024-01-10T09:19:56.692Z,2.61
2024-01-10T09:20:57.551Z,3.00
2024-01-10T09:21:56.807Z,2.40
2024-01-10T09:22:56.893Z,3.92
2024-01-10T09:23:56.976Z,3.22
2024-01-10T09:24:56.943Z,3.41
2024-01-10T09:25:57.009Z,4.19
2024-01-10T09:26:56.950Z,3.61
2024-01-10T09:27:56.946Z,4.63
2024-01-10T09:28:56.992Z,3.36
2024-01-10T09:29:56.992Z,3.85
2024-01-10T09:30:57.050Z,4.24
2024-01-10T09:31:57.036Z,4.21
2024-01-10T09:32:57.032Z,4.02
2024-01-10T09:33:57.076Z,3.93
2024-01-10T09:34:57.008Z,4.40
2024-01-10T09:35:59.163Z,4.34
2024-01-10T09:36:56.968Z,4.00
2024-01-10T09:37:57.020Z,4.05
2024-01-10T09:38:57.013Z,3.87
2024-01-10T09:39:56.985Z,3.81
2024-01-10T09:40:56.994Z,3.83
2024-01-10T09:41:56.978Z,4.02
2024-01-10T09:42:56.989Z,3.15
2024-01-10T09:43:57.032Z,3.82
2024-01-10T09:44:56.992Z,3.53
2024-01-10T09:45:57.041Z,3.25
2024-01-10T09:46:56.997Z,2.76
2024-01-10T09:47:57.265Z,2.76
2024-01-10T09:48:59.434Z,2.67
2024-01-10T09:49:57.055Z,2.49
2024-01-10T09:50:57.013Z,3.06
2024-01-10T09:51:57.018Z,2.54
2024-01-10T09:52:57.037Z,2.68
2024-01-10T09:53:57.020Z,2.71
2024-01-10T09:54:57.038Z,2.31
2024-01-10T09:55:57.032Z,2.57
2024-01-10T09:56:57.018Z,2.42
2024-01-10T09:57:57.011Z,2.09
2024-01-10T09:58:57.040Z,2.35
2024-01-10T09:59:57.028Z,2.52
2024-01-10T10:00:57.015Z,2.38
2024-01-10T10:01:57.080Z,2.48
2024-01-10T10:02:57.035Z,2.02
2024-01-10T10:03:57.023Z,1.86
2024-01-10T10:04:58.348Z,1.84
2024-01-10T10:05:57.074Z,1.72
2024-01-10T10:06:57.072Z,1.94
2024-01-10T10:07:57.164Z,1.95
2024-01-10T10:08:57.029Z,1.92
2024-01-10T10:09:57.020Z,1.96
2024-01-10T10:10:57.091Z,2.16
2024-01-10T10:11:57.082Z,1.72
2024-01-10T10:12:57.135Z,1.48
2024-01-10T10:13:57.260Z,1.88
2024-01-10T10:14:57.317Z,1.88
2024-01-10T10:15:57.269Z,1.81
2024-01-10T10:16:57.277Z,1.76
2024-01-10T10:17:57.406Z,1.27
2024-01-10T10:18:57.308Z,1.28
2024-01-10T10:19:57.323Z,1.62
2024-01-10T10:20:57.255Z,1.33
2024-01-10T10:21:57.274Z,1.69
2024-01-10T10:22:57.302Z,1.62
2024-01-10T10:23:57.287Z,1.53
2024-01-10T10:24:57.246Z,1.08
2024-01-10T10:25:57.394Z,1.40
2024-01-10T10:26:57.347Z,1.59
2024-01-10T10:27:57.410Z,1.30
2024-01-10T10:28:57.505Z,1.54
2024-01-10T10:29:57.495Z,1.35
2024-01-10T10:30:57.638Z,1.35
2024-01-10T10:31:57.611Z,1.62
2024-01-10T10:32:57.830Z,1.57
2024-01-10T10:33:57.825Z,1.56
2024-01-10T10:34:57.890Z,1.89
2024-01-10T10:35:57.852Z,1.32
2024-01-10T10:36:57.802Z,1.47
2024-01-10T10:37:57.864Z,1.60
2024-01-10T10:38:57.804Z,1.66
2024-01-10T10:39:57.811Z,1.87
2024-01-10T10:40:57.827Z,1.98
2024-01-10T10:41:57.812Z,2.36
2024-01-10T10:42:57.812Z,2.17
2024-01-10T10:43:57.873Z,1.76
2024-01-10T10:44:57.814Z,2.20
2024-01-10T10:45:57.828Z,1.65
2024-01-10T10:47:08.573Z,1.93
2024-01-10T10:47:58.971Z,1.79
2024-01-10T10:48:57.960Z,1.89
2024-01-10T10:49:57.917Z,1.72
2024-01-10T10:50:57.842Z,1.80
2024-01-10T10:51:57.925Z,2.09
2024-01-10T10:52:57.854Z,1.75
2024-01-10T10:53:57.873Z,2.27
2024-01-10T10:54:57.832Z,2.12
2024-01-10T10:55:57.916Z,1.62
2024-01-10T10:56:57.831Z,1.81
2024-01-10T10:58:04.564Z,1.96
2024-01-10T10:58:58.997Z,1.98
2024-01-10T10:59:57.948Z,1.77
2024-01-10T11:00:58.074Z,1.81
2024-01-10T11:01:57.884Z,2.07
2024-01-10T11:02:57.902Z,1.95
2024-01-10T11:03:57.899Z,1.86
2024-01-10T11:04:58.126Z,1.82
2024-01-10T11:05:58.136Z,1.95
2024-01-10T11:06:58.049Z,1.66
2024-01-10T11:07:58.020Z,1.74
2024-01-10T11:08:58.010Z,1.82
2024-01-10T11:09:58.070Z,2.25
2024-01-10T11:10:58.114Z,1.97
2024-01-10T11:11:58.154Z,1.55
2024-01-10T11:12:58.205Z,1.61
2024-01-10T11:13:58.397Z,1.54
2024-01-10T11:14:58.230Z,2.00
2024-01-10T11:15:58.210Z,1.91
2024-01-10T11:16:58.276Z,2.59
2024-01-10T11:17:58.293Z,1.80
2024-01-10T11:18:58.257Z,1.54
2024-01-10T11:19:58.295Z,1.96
2024-01-10T11:20:58.250Z,2.06
2024-01-10T11:21:58.272Z,1.80
2024-01-10T11:22:58.274Z,1.76
2024-01-10T11:23:58.234Z,1.89
2024-01-10T11:25:00.203Z,2.24
2024-01-10T11:25:58.244Z,1.93
2024-01-10T11:26:58.225Z,1.72
2024-01-10T11:28:03.583Z,1.85
2024-01-10T11:28:59.326Z,1.40
2024-01-10T11:29:58.250Z,1.55
2024-01-10T11:30:58.439Z,1.60
2024-01-10T11:31:58.252Z,1.87
2024-01-10T11:32:58.277Z,1.77
2024-01-10T11:33:58.331Z,1.81
2024-01-10T11:34:58.315Z,1.89
2024-01-10T11:36:00.301Z,1.87
2024-01-10T11:36:58.241Z,1.99
2024-01-10T11:37:58.296Z,1.83
2024-01-10T11:38:58.254Z,1.85
2024-01-10T11:39:58.268Z,1.65
2024-01-10T11:40:58.298Z,2.12
2024-01-10T11:41:58.283Z,1.94
2024-01-10T11:42:58.290Z,1.46
2024-01-10T11:43:58.269Z,1.99
2024-01-10T11:44:58.269Z,1.82
2024-01-10T11:45:58.264Z,1.70
2024-01-10T11:46:58.322Z,1.63
2024-01-10T11:47:58.340Z,1.23
2024-01-10T11:48:58.342Z,1.36
2024-01-10T11:49:58.322Z,1.67
2024-01-10T11:50:58.272Z,1.84
2024-01-10T11:51:58.290Z,1.91
2024-01-10T11:52:58.295Z,1.68
2024-01-10T11:53:58.281Z,1.51
2024-01-10T11:54:58.289Z,1.68
2024-01-10T11:55:58.281Z,1.50
2024-01-10T11:56:58.384Z,1.43
2024-01-10T11:57:58.308Z,1.96
2024-01-10T11:58:58.308Z,1.79
2024-01-10T11:59:58.288Z,1.38
2024-01-10T12:00:58.333Z,1.66
2024-01-10T12:01:58.347Z,1.46
2024-01-10T12:02:58.308Z,1.68
2024-01-10T12:04:10.162Z,1.43
2024-01-10T12:04:58.516Z,1.17
2024-01-10T12:05:58.437Z,1.40
2024-01-10T12:06:58.558Z,1.77
2024-01-10T12:07:58.399Z,1.53
2024-01-10T12:08:58.350Z,1.76
2024-01-10T12:09:58.330Z,1.52
2024-01-10T12:10:58.363Z,1.21
2024-01-10T12:11:58.313Z,1.46
2024-01-10T12:12:58.320Z,1.35
2024-01-10T12:13:58.364Z,1.60
2024-01-10T12:14:58.353Z,1.44
2024-01-10T12:15:58.340Z,1.50
2024-01-10T12:16:58.394Z,1.06
2024-01-10T12:17:58.366Z,1.11
2024-01-10T12:18:58.358Z,1.33
2024-01-10T12:19:58.351Z,1.56
2024-01-10T12:20:58.333Z,1.54
2024-01-10T12:21:58.346Z,1.42
2024-01-10T12:22:58.362Z,1.07
2024-01-10T12:23:58.350Z,1.36
2024-01-10T12:24:58.354Z,1.10
2024-01-10T12:25:58.404Z,1.47
2024-01-10T12:26:58.362Z,1.28
2024-01-10T12:27:58.354Z,1.40
2024-01-10T12:28:58.431Z,1.74
2024-01-10T12:29:58.383Z,1.57
2024-01-10T12:30:58.387Z,1.15
2024-01-10T12:31:58.406Z,1.19
2024-01-10T12:32:58.398Z,1.39
2024-01-10T12:33:58.471Z,1.30
2024-01-10T12:34:58.391Z,1.16
2024-01-10T12:35:58.357Z,0.71
2024-01-10T12:36:58.362Z,1.34
2024-01-10T12:37:58.478Z,1.23
2024-01-10T12:38:58.398Z,1.17
2024-01-10T12:39:58.449Z,1.44
2024-01-10T12:40:58.438Z,1.43
2024-01-10T12:41:58.399Z,1.33
2024-01-10T12:42:58.370Z,1.09
2024-01-10T12:43:58.523Z,1.42
2024-01-10T12:44:58.377Z,1.07
2024-01-10T12:45:58.381Z,1.30
2024-01-10T12:46:58.489Z,1.09
2024-01-10T12:47:58.481Z,1.07
2024-01-10T12:48:58.494Z,0.99
2024-01-10T12:49:58.440Z,1.72
2024-01-10T12:50:58.380Z,1.18
2024-01-10T12:51:58.394Z,1.12
2024-01-10T12:52:58.454Z,1.11
2024-01-10T12:53:58.401Z,0.93
2024-01-10T12:54:58.411Z,0.76
2024-01-10T12:55:58.450Z,1.71
2024-01-10T12:56:58.422Z,1.23
2024-01-10T12:57:58.407Z,1.27
2024-01-10T12:58:58.596Z,1.30
2024-01-10T12:59:58.406Z,1.16
2024-01-10T13:00:58.416Z,0.97
2024-01-10T13:01:58.475Z,1.24
2024-01-10T13:02:58.421Z,1.22
2024-01-10T13:03:58.442Z,1.29
2024-01-10T13:04:58.428Z,1.47
2024-01-10T13:05:58.467Z,1.27
2024-01-10T13:06:58.419Z,1.61
2024-01-10T13:07:58.525Z,1.40
2024-01-10T13:08:58.489Z,1.55
2024-01-10T13:09:58.452Z,1.53
2024-01-10T13:10:58.502Z,2.14
2024-01-10T13:11:58.417Z,1.59
2024-01-10T13:12:58.430Z,1.34
2024-01-10T13:13:58.611Z,1.76
2024-01-10T13:15:01.753Z,1.53
2024-01-10T13:15:58.533Z,1.82
2024-01-10T13:17:00.437Z,2.45
2024-01-10T13:17:58.662Z,2.00
2024-01-10T13:18:58.872Z,2.16